sensor_id;sensor_type;location;lat;lon;timestamp;temperature;humidity
12520;DHT22;6325;49.540;8.364;2022-12-18T00:01:14;-3.90;99.90
12520;DHT22;6325;49.540;8.364;2022-12-18T00:03:47;-4.30;99.90
12520;DHT22;6325;49.540;8.364;2022-12-18T00:06:18;-3.90;99.90
12520;DHT22;6325;49.540;8.364;2022-12-18T00:08:47;-4.00;99.90
12520;DHT22;6325;49.540;8.364;2022-12-18T00:11:32;-4.30;99.90
12520;DHT22;6325;49.540;8.364;2022-12-18T00:14:07;-4.30;99.90
12520;DHT22;6325;49.540;8.364;2022-12-18T00:16:47;-4.10;99.90
12520;DHT22;6325;49.540;8.364;2022-12-18T00:19:32;-4.40;99.90
12520;DHT22;6325;49.540;8.364;2022-12-18T00:22:10;-3.70;99.90
12520;DHT22;6325;49.540;8.364;2022-12-18T00:24:40;-4.20;99.90
12520;DHT22;6325;49.540;8.364;2022-12-18T00:27:08;-4.40;99.90
12520;DHT22;6325;49.540;8.364;2022-12-18T00:30:01;-4.10;99.90
12520;DHT22;6325;49.540;8.364;2022-12-18T00:32:32;-3.70;99.90
12520;DHT22;6325;49.540;8.364;2022-12-18T00:35:03;-4.10;99.90
12520;DHT22;6325;49.540;8.364;2022-12-18T00:37:36;-4.60;99.90
12520;DHT22;6325;49.540;8.364;2022-12-18T00:40:11;-4.10;99.90
12520;DHT22;6325;49.540;8.364;2022-12-18T00:42:40;-4.00;99.90
12520;DHT22;6325;49.540;8.364;2022-12-18T00:45:24;-4.00;99.90
12520;DHT22;6325;49.540;8.364;2022-12-18T00:47:54;-3.80;99.90
12520;DHT22;6325;49.540;8.364;2022-12-18T00:50:28;-3.70;99.90
12520;DHT22;6325;49.540;8.364;2022-12-18T00:52:57;-4.20;99.90
12520;DHT22;6325;49.540;8.364;2022-12-18T00:55:34;-4.10;99.90
12520;DHT22;6325;49.540;8.364;2022-12-18T00:58:04;-4.00;99.90
12520;DHT22;6325;49.540;8.364;2022-12-18T01:00:38;-4.50;99.90
12520;DHT22;6325;49.540;8.364;2022-12-18T01:03:05;-4.30;99.90
12520;DHT22;6325;49.540;8.364;2022-12-18T01:05:39;-4.00;99.90
12520;DHT22;6325;49.540;8.364;2022-12-18T01:08:13;-4.60;99.90
12520;DHT22;6325;49.540;8.364;2022-12-18T01:10:49;-4.30;99.90
12520;DHT22;6325;49.540;8.364;2022-12-18T01:13:26;-4.00;99.90
12520;DHT22;6325;49.540;8.364;2022-12-18T01:16:05;-4.30;99.90
12520;DHT22;6325;49.540;8.364;2022-12-18T01:18:36;-4.70;99.90
12520;DHT22;6325;49.540;8.364;2022-12-18T01:21:06;-3.70;99.90
12520;DHT22;6325;49.540;8.364;2022-12-18T01:23:35;-3.90;99.90
12520;DHT22;6325;49.540;8.364;2022-12-18T01:26:09;-4.60;99.90
12520;DHT22;6325;49.540;8.364;2022-12-18T01:28:45;-4.50;99.90
12520;DHT22;6325;49.540;8.364;2022-12-18T01:31:22;-4.00;99.90
12520;DHT22;6325;49.540;8.364;2022-12-18T01:33:53;-3.90;99.90
12520;DHT22;6325;49.540;8.364;2022-12-18T01:36:26;-4.70;99.90
12520;DHT22;6325;49.540;8.364;2022-12-18T01:38:55;-4.40;99.90
12520;DHT22;6325;49.540;8.364;2022-12-18T01:41:29;-4.10;99.90
12520;DHT22;6325;49.540;8.364;2022-12-18T01:47:35;-4.90;99.90
12520;DHT22;6325;49.540;8.364;2022-12-18T01:50:10;-4.70;99.90
12520;DHT22;6325;49.540;8.364;2022-12-18T01:52:42;-4.50;99.90
12520;DHT22;6325;49.540;8.364;2022-12-18T01:55:12;-4.50;99.90
12520;DHT22;6325;49.540;8.364;2022-12-18T01:57:44;-4.10;99.90
12520;DHT22;6325;49.540;8.364;2022-12-18T02:00:16;-4.90;99.90
12520;DHT22;6325;49.540;8.364;2022-12-18T02:02:48;-4.10;99.90
12520;DHT22;6325;49.540;8.364;2022-12-18T02:05:19;-4.40;99.90
12520;DHT22;6325;49.540;8.364;2022-12-18T02:07:59;-4.70;99.90
12520;DHT22;6325;49.540;8.364;2022-12-18T02:10:37;-3.90;99.90
12520;DHT22;6325;49.540;8.364;2022-12-18T02:13:11;-4.50;99.90
12520;DHT22;6325;49.540;8.364;2022-12-18T02:15:45;-4.10;99.90
12520;DHT22;6325;49.540;8.364;2022-12-18T02:18:20;-4.70;99.90
12520;DHT22;6325;49.540;8.364;2022-12-18T02:20:55;-4.70;99.90
12520;DHT22;6325;49.540;8.364;2022-12-18T02:23:37;-4.40;99.90
12520;DHT22;6325;49.540;8.364;2022-12-18T02:26:18;-4.60;99.90
12520;DHT22;6325;49.540;8.364;2022-12-18T02:28:49;-5.20;99.90
12520;DHT22;6325;49.540;8.364;2022-12-18T02:31:22;-5.10;99.90
12520;DHT22;6325;49.540;8.364;2022-12-18T02:33:52;-4.60;99.90
12520;DHT22;6325;49.540;8.364;2022-12-18T02:36:24;-4.60;99.90
12520;DHT22;6325;49.540;8.364;2022-12-18T02:38:56;-4.80;99.90
12520;DHT22;6325;49.540;8.364;2022-12-18T02:41:28;-5.00;99.90
12520;DHT22;6325;49.540;8.364;2022-12-18T02:44:00;-4.80;99.90
12520;DHT22;6325;49.540;8.364;2022-12-18T02:46:32;-4.90;99.90
12520;DHT22;6325;49.540;8.364;2022-12-18T02:49:08;-4.70;99.90
12520;DHT22;6325;49.540;8.364;2022-12-18T02:51:50;-5.40;99.90
12520;DHT22;6325;49.540;8.364;2022-12-18T02:54:31;-4.90;99.90
12520;DHT22;6325;49.540;8.364;2022-12-18T02:57:14;-5.00;99.90
12520;DHT22;6325;49.540;8.364;2022-12-18T02:59:49;-4.70;99.90
12520;DHT22;6325;49.540;8.364;2022-12-18T03:02:21;-4.90;99.90
12520;DHT22;6325;49.540;8.364;2022-12-18T03:04:55;-5.10;99.90
12520;DHT22;6325;49.540;8.364;2022-12-18T03:07:39;-5.10;99.90
12520;DHT22;6325;49.540;8.364;2022-12-18T03:10:14;-4.90;99.90
12520;DHT22;6325;49.540;8.364;2022-12-18T03:12:50;-4.90;99.90
12520;DHT22;6325;49.540;8.364;2022-12-18T03:15:21;-5.30;99.90
12520;DHT22;6325;49.540;8.364;2022-12-18T03:17:56;-4.80;99.90
12520;DHT22;6325;49.540;8.364;2022-12-18T03:20:28;-5.00;99.90
12520;DHT22;6325;49.540;8.364;2022-12-18T03:23:06;-5.20;99.90
12520;DHT22;6325;49.540;8.364;2022-12-18T03:25:38;-4.60;99.90
12520;DHT22;6325;49.540;8.364;2022-12-18T03:28:11;-4.50;99.90
12520;DHT22;6325;49.540;8.364;2022-12-18T03:30:46;-5.10;99.90
12520;DHT22;6325;49.540;8.364;2022-12-18T03:33:21;-4.70;99.90
12520;DHT22;6325;49.540;8.364;2022-12-18T03:35:51;-4.80;99.90
12520;DHT22;6325;49.540;8.364;2022-12-18T03:38:20;-4.90;99.90
12520;DHT22;6325;49.540;8.364;2022-12-18T03:40:58;-5.10;99.90
12520;DHT22;6325;49.540;8.364;2022-12-18T03:43:36;-4.80;99.90
12520;DHT22;6325;49.540;8.364;2022-12-18T03:46:11;-5.40;99.90
12520;DHT22;6325;49.540;8.364;2022-12-18T03:48:44;-5.60;99.90
12520;DHT22;6325;49.540;8.364;2022-12-18T03:51:18;-5.60;99.90
12520;DHT22;6325;49.540;8.364;2022-12-18T03:53:55;-5.40;99.90
12520;DHT22;6325;49.540;8.364;2022-12-18T03:56:28;-5.60;99.90
12520;DHT22;6325;49.540;8.364;2022-12-18T03:58:59;-4.80;99.90
12520;DHT22;6325;49.540;8.364;2022-12-18T04:01:32;-5.30;99.90
12520;DHT22;6325;49.540;8.364;2022-12-18T04:04:01;-5.50;99.90
12520;DHT22;6325;49.540;8.364;2022-12-18T04:06:30;-5.40;99.90
12520;DHT22;6325;49.540;8.364;2022-12-18T04:09:00;-5.20;99.90
12520;DHT22;6325;49.540;8.364;2022-12-18T04:11:31;-5.20;99.90
12520;DHT22;6325;49.540;8.364;2022-12-18T04:14:00;-5.20;99.90
12520;DHT22;6325;49.540;8.364;2022-12-18T04:16:27;-5.70;99.90
12520;DHT22;6325;49.540;8.364;2022-12-18T04:18:56;-5.10;99.90
12520;DHT22;6325;49.540;8.364;2022-12-18T04:21:24;-5.50;99.90
12520;DHT22;6325;49.540;8.364;2022-12-18T04:23:52;-5.80;99.90
12520;DHT22;6325;49.540;8.364;2022-12-18T04:26:21;-5.60;99.90
12520;DHT22;6325;49.540;8.364;2022-12-18T04:28:51;-5.20;99.90
12520;DHT22;6325;49.540;8.364;2022-12-18T04:31:24;-5.00;99.90
12520;DHT22;6325;49.540;8.364;2022-12-18T04:33:51;-5.20;99.90
12520;DHT22;6325;49.540;8.364;2022-12-18T04:36:19;-5.40;99.90
12520;DHT22;6325;49.540;8.364;2022-12-18T04:38:46;-5.30;99.90
12520;DHT22;6325;49.540;8.364;2022-12-18T04:41:14;-5.90;99.90
12520;DHT22;6325;49.540;8.364;2022-12-18T04:43:41;-5.70;99.90
12520;DHT22;6325;49.540;8.364;2022-12-18T04:46:09;-5.60;99.90
12520;DHT22;6325;49.540;8.364;2022-12-18T04:48:40;-5.60;99.90
12520;DHT22;6325;49.540;8.364;2022-12-18T04:51:07;-5.70;99.90
12520;DHT22;6325;49.540;8.364;2022-12-18T04:53:34;-5.40;99.90
12520;DHT22;6325;49.540;8.364;2022-12-18T04:56:04;-5.40;99.90
12520;DHT22;6325;49.540;8.364;2022-12-18T04:58:31;-5.80;99.90
12520;DHT22;6325;49.540;8.364;2022-12-18T05:00:59;-5.80;99.90
12520;DHT22;6325;49.540;8.364;2022-12-18T05:03:30;-5.90;99.90
12520;DHT22;6325;49.540;8.364;2022-12-18T05:05:59;-5.60;99.90
12520;DHT22;6325;49.540;8.364;2022-12-18T05:08:27;-5.50;99.90
12520;DHT22;6325;49.540;8.364;2022-12-18T05:10:59;-5.50;99.90
12520;DHT22;6325;49.540;8.364;2022-12-18T05:13:27;-5.90;99.90
12520;DHT22;6325;49.540;8.364;2022-12-18T05:15:54;-5.40;99.90
12520;DHT22;6325;49.540;8.364;2022-12-18T05:18:23;-6.20;99.90
12520;DHT22;6325;49.540;8.364;2022-12-18T05:20:50;-5.40;99.90
12520;DHT22;6325;49.540;8.364;2022-12-18T05:23:21;-5.50;99.90
12520;DHT22;6325;49.540;8.364;2022-12-18T05:25:51;-5.90;99.90
12520;DHT22;6325;49.540;8.364;2022-12-18T05:28:20;-5.50;99.90
12520;DHT22;6325;49.540;8.364;2022-12-18T05:30:48;-5.60;99.90
12520;DHT22;6325;49.540;8.364;2022-12-18T05:33:16;-6.10;99.90
12520;DHT22;6325;49.540;8.364;2022-12-18T05:35:49;-5.50;99.90
12520;DHT22;6325;49.540;8.364;2022-12-18T05:38:20;-6.10;99.90
12520;DHT22;6325;49.540;8.364;2022-12-18T05:40:47;-5.50;99.90
12520;DHT22;6325;49.540;8.364;2022-12-18T05:43:15;-5.80;99.90
12520;DHT22;6325;49.540;8.364;2022-12-18T05:45:43;-6.10;99.90
12520;DHT22;6325;49.540;8.364;2022-12-18T05:48:12;-5.60;99.90
12520;DHT22;6325;49.540;8.364;2022-12-18T05:50:41;-5.70;99.90
12520;DHT22;6325;49.540;8.364;2022-12-18T05:53:11;-5.80;99.90
12520;DHT22;6325;49.540;8.364;2022-12-18T05:55:43;-6.50;99.90
12520;DHT22;6325;49.540;8.364;2022-12-18T05:58:12;-6.00;99.90
12520;DHT22;6325;49.540;8.364;2022-12-18T06:00:43;-6.20;99.90
12520;DHT22;6325;49.540;8.364;2022-12-18T06:03:12;-6.10;99.90
12520;DHT22;6325;49.540;8.364;2022-12-18T06:05:41;-6.00;99.90
12520;DHT22;6325;49.540;8.364;2022-12-18T06:08:08;-5.70;99.90
12520;DHT22;6325;49.540;8.364;2022-12-18T06:10:36;-5.90;99.90
12520;DHT22;6325;49.540;8.364;2022-12-18T06:13:05;-5.60;99.90
12520;DHT22;6325;49.540;8.364;2022-12-18T06:15:36;-6.40;99.90
12520;DHT22;6325;49.540;8.364;2022-12-18T06:18:04;-5.90;99.90
12520;DHT22;6325;49.540;8.364;2022-12-18T06:20:33;-5.90;99.90
12520;DHT22;6325;49.540;8.364;2022-12-18T06:23:02;-5.60;99.90
12520;DHT22;6325;49.540;8.364;2022-12-18T06:25:29;-5.60;99.90
12520;DHT22;6325;49.540;8.364;2022-12-18T06:27:57;-6.10;99.90
12520;DHT22;6325;49.540;8.364;2022-12-18T06:30:26;-5.80;99.90
12520;DHT22;6325;49.540;8.364;2022-12-18T06:32:53;-5.90;99.90
12520;DHT22;6325;49.540;8.364;2022-12-18T06:35:21;-5.50;99.90
12520;DHT22;6325;49.540;8.364;2022-12-18T06:38:01;-5.80;99.90
12520;DHT22;6325;49.540;8.364;2022-12-18T06:40:33;-5.90;99.90
12520;DHT22;6325;49.540;8.364;2022-12-18T06:43:01;-5.60;99.90
12520;DHT22;6325;49.540;8.364;2022-12-18T06:45:37;-5.40;99.90
12520;DHT22;6325;49.540;8.364;2022-12-18T06:48:05;-5.60;99.90
12520;DHT22;6325;49.540;8.364;2022-12-18T06:50:32;-5.50;99.90
12520;DHT22;6325;49.540;8.364;2022-12-18T06:53:00;-5.10;99.90
12520;DHT22;6325;49.540;8.364;2022-12-18T06:55:31;-5.60;99.90
12520;DHT22;6325;49.540;8.364;2022-12-18T06:57:58;-5.20;99.90
12520;DHT22;6325;49.540;8.364;2022-12-18T07:00:25;-5.50;99.90
12520;DHT22;6325;49.540;8.364;2022-12-18T07:02:54;-5.70;99.90
12520;DHT22;6325;49.540;8.364;2022-12-18T07:05:21;-5.50;99.90
12520;DHT22;6325;49.540;8.364;2022-12-18T07:07:51;-4.90;99.90
12520;DHT22;6325;49.540;8.364;2022-12-18T07:10:19;-5.50;99.90
12520;DHT22;6325;49.540;8.364;2022-12-18T07:12:49;-5.20;99.90
12520;DHT22;6325;49.540;8.364;2022-12-18T07:15:17;-5.20;99.90
12520;DHT22;6325;49.540;8.364;2022-12-18T07:17:44;-4.90;99.90
12520;DHT22;6325;49.540;8.364;2022-12-18T07:20:12;-5.40;99.90
12520;DHT22;6325;49.540;8.364;2022-12-18T07:22:45;-5.00;99.90
12520;DHT22;6325;49.540;8.364;2022-12-18T07:25:12;-4.60;99.90
12520;DHT22;6325;49.540;8.364;2022-12-18T07:27:41;-5.10;99.90
12520;DHT22;6325;49.540;8.364;2022-12-18T07:30:10;-4.70;99.90
12520;DHT22;6325;49.540;8.364;2022-12-18T07:32:37;-5.30;99.90
12520;DHT22;6325;49.540;8.364;2022-12-18T07:35:05;-4.60;99.90
12520;DHT22;6325;49.540;8.364;2022-12-18T07:37:34;-4.90;99.90
12520;DHT22;6325;49.540;8.364;2022-12-18T07:40:10;-4.60;99.90
12520;DHT22;6325;49.540;8.364;2022-12-18T07:42:37;-5.20;99.90
12520;DHT22;6325;49.540;8.364;2022-12-18T07:45:05;-5.20;99.90
12520;DHT22;6325;49.540;8.364;2022-12-18T07:47:34;-4.90;99.90
12520;DHT22;6325;49.540;8.364;2022-12-18T07:50:02;-5.20;99.90
12520;DHT22;6325;49.540;8.364;2022-12-18T07:52:30;-5.40;99.90
12520;DHT22;6325;49.540;8.364;2022-12-18T07:54:59;-5.20;99.90
12520;DHT22;6325;49.540;8.364;2022-12-18T07:57:26;-5.20;99.90
12520;DHT22;6325;49.540;8.364;2022-12-18T07:59:54;-5.00;99.90
12520;DHT22;6325;49.540;8.364;2022-12-18T08:02:21;-5.00;99.90
12520;DHT22;6325;49.540;8.364;2022-12-18T08:04:48;-5.00;99.90
12520;DHT22;6325;49.540;8.364;2022-12-18T08:07:16;-4.60;99.90
12520;DHT22;6325;49.540;8.364;2022-12-18T08:09:45;-5.30;99.90
12520;DHT22;6325;49.540;8.364;2022-12-18T08:12:14;-5.50;99.90
12520;DHT22;6325;49.540;8.364;2022-12-18T08:14:42;-5.30;99.90
12520;DHT22;6325;49.540;8.364;2022-12-18T08:17:10;-4.60;99.90
12520;DHT22;6325;49.540;8.364;2022-12-18T08:19:41;-5.60;99.90
12520;DHT22;6325;49.540;8.364;2022-12-18T08:22:13;-4.90;99.90
12520;DHT22;6325;49.540;8.364;2022-12-18T08:24:42;-4.70;99.90
12520;DHT22;6325;49.540;8.364;2022-12-18T08:27:11;-4.60;99.90
12520;DHT22;6325;49.540;8.364;2022-12-18T08:29:40;-5.30;99.90
12520;DHT22;6325;49.540;8.364;2022-12-18T08:32:11;-4.50;99.90
12520;DHT22;6325;49.540;8.364;2022-12-18T08:34:39;-4.60;99.90
12520;DHT22;6325;49.540;8.364;2022-12-18T08:37:06;-4.30;99.90
12520;DHT22;6325;49.540;8.364;2022-12-18T08:39:33;-4.50;99.90
12520;DHT22;6325;49.540;8.364;2022-12-18T08:42:00;-4.60;99.90
12520;DHT22;6325;49.540;8.364;2022-12-18T08:44:46;-4.40;99.90
12520;DHT22;6325;49.540;8.364;2022-12-18T08:47:13;-4.40;99.90
12520;DHT22;6325;49.540;8.364;2022-12-18T08:49:41;-4.50;99.90
12520;DHT22;6325;49.540;8.364;2022-12-18T08:52:10;-4.90;99.90
12520;DHT22;6325;49.540;8.364;2022-12-18T08:54:37;-4.50;99.90
12520;DHT22;6325;49.540;8.364;2022-12-18T08:57:05;-4.90;99.90
12520;DHT22;6325;49.540;8.364;2022-12-18T08:59:32;-4.60;99.90
12520;DHT22;6325;49.540;8.364;2022-12-18T09:02:03;-4.50;99.90
12520;DHT22;6325;49.540;8.364;2022-12-18T09:04:30;-4.70;99.90
12520;DHT22;6325;49.540;8.364;2022-12-18T09:07:05;-4.70;99.90
12520;DHT22;6325;49.540;8.364;2022-12-18T09:09:48;-4.30;99.90
12520;DHT22;6325;49.540;8.364;2022-12-18T09:12:17;-4.20;99.90
12520;DHT22;6325;49.540;8.364;2022-12-18T09:14:47;-4.60;99.90
12520;DHT22;6325;49.540;8.364;2022-12-18T09:17:18;-3.90;99.90
12520;DHT22;6325;49.540;8.364;2022-12-18T09:19:45;-3.70;99.90
12520;DHT22;6325;49.540;8.364;2022-12-18T09:22:12;-3.90;99.90
12520;DHT22;6325;49.540;8.364;2022-12-18T09:24:39;-4.50;99.90
12520;DHT22;6325;49.540;8.364;2022-12-18T09:27:06;-4.40;99.90
12520;DHT22;6325;49.540;8.364;2022-12-18T09:29:34;-4.20;99.90
12520;DHT22;6325;49.540;8.364;2022-12-18T09:32:01;-4.50;99.90
12520;DHT22;6325;49.540;8.364;2022-12-18T09:34:29;-4.50;99.90
12520;DHT22;6325;49.540;8.364;2022-12-18T09:36:56;-4.50;99.90
12520;DHT22;6325;49.540;8.364;2022-12-18T09:39:23;-4.50;99.90
12520;DHT22;6325;49.540;8.364;2022-12-18T09:41:51;-4.70;99.90
12520;DHT22;6325;49.540;8.364;2022-12-18T09:44:23;-4.40;99.90
12520;DHT22;6325;49.540;8.364;2022-12-18T09:46:59;-5.00;99.90
12520;DHT22;6325;49.540;8.364;2022-12-18T09:49:34;-5.10;99.90
12520;DHT22;6325;49.540;8.364;2022-12-18T09:52:07;-4.80;99.90
12520;DHT22;6325;49.540;8.364;2022-12-18T09:54:38;-5.10;99.90
12520;DHT22;6325;49.540;8.364;2022-12-18T09:57:06;-4.50;99.90
12520;DHT22;6325;49.540;8.364;2022-12-18T09:59:36;-4.80;99.90
12520;DHT22;6325;49.540;8.364;2022-12-18T10:02:14;-4.90;99.90
12520;DHT22;6325;49.540;8.364;2022-12-18T10:04:43;-4.80;99.90
12520;DHT22;6325;49.540;8.364;2022-12-18T10:07:15;-4.80;99.90
12520;DHT22;6325;49.540;8.364;2022-12-18T10:09:50;-4.70;99.90
12520;DHT22;6325;49.540;8.364;2022-12-18T10:12:27;-4.50;99.90
12520;DHT22;6325;49.540;8.364;2022-12-18T10:15:05;-4.20;99.90
12520;DHT22;6325;49.540;8.364;2022-12-18T10:17:41;-3.90;99.90
12520;DHT22;6325;49.540;8.364;2022-12-18T10:20:15;-4.10;99.90
12520;DHT22;6325;49.540;8.364;2022-12-18T10:22:50;-4.20;99.90
12520;DHT22;6325;49.540;8.364;2022-12-18T10:25:23;-3.70;99.90
12520;DHT22;6325;49.540;8.364;2022-12-18T10:27:53;-3.60;99.90
12520;DHT22;6325;49.540;8.364;2022-12-18T10:30:23;-3.50;99.90
12520;DHT22;6325;49.540;8.364;2022-12-18T10:32:50;-3.20;99.90
12520;DHT22;6325;49.540;8.364;2022-12-18T10:35:20;-3.20;99.90
12520;DHT22;6325;49.540;8.364;2022-12-18T10:38:05;-3.10;99.90
12520;DHT22;6325;49.540;8.364;2022-12-18T10:40:47;-2.90;99.90
12520;DHT22;6325;49.540;8.364;2022-12-18T10:43:16;-2.90;99.90
12520;DHT22;6325;49.540;8.364;2022-12-18T10:46:00;-2.60;99.90
12520;DHT22;6325;49.540;8.364;2022-12-18T10:48:27;-3.10;99.90
12520;DHT22;6325;49.540;8.364;2022-12-18T10:51:04;-3.40;99.90
12520;DHT22;6325;49.540;8.364;2022-12-18T10:53:38;-3.30;99.90
12520;DHT22;6325;49.540;8.364;2022-12-18T10:56:19;-2.90;99.90
12520;DHT22;6325;49.540;8.364;2022-12-18T10:58:57;-2.70;99.90
12520;DHT22;6325;49.540;8.364;2022-12-18T11:01:24;-2.70;99.90
12520;DHT22;6325;49.540;8.364;2022-12-18T11:04:00;-2.60;99.90
12520;DHT22;6325;49.540;8.364;2022-12-18T11:06:29;-2.80;99.90
12520;DHT22;6325;49.540;8.364;2022-12-18T11:09:01;-2.90;99.90
12520;DHT22;6325;49.540;8.364;2022-12-18T11:11:28;-2.20;99.90
12520;DHT22;6325;49.540;8.364;2022-12-18T11:14:01;-2.30;99.90
12520;DHT22;6325;49.540;8.364;2022-12-18T11:16:31;-2.70;99.90
12520;DHT22;6325;49.540;8.364;2022-12-18T11:19:13;-2.20;99.90
12520;DHT22;6325;49.540;8.364;2022-12-18T11:21:43;-2.50;99.90
12520;DHT22;6325;49.540;8.364;2022-12-18T11:24:19;-1.90;99.90
12520;DHT22;6325;49.540;8.364;2022-12-18T11:26:47;-2.60;99.90
12520;DHT22;6325;49.540;8.364;2022-12-18T11:29:18;-2.40;99.90
12520;DHT22;6325;49.540;8.364;2022-12-18T11:31:49;-1.80;99.90
12520;DHT22;6325;49.540;8.364;2022-12-18T11:34:21;-1.80;99.90
12520;DHT22;6325;49.540;8.364;2022-12-18T11:36:51;-1.50;99.90
12520;DHT22;6325;49.540;8.364;2022-12-18T11:39:24;-2.10;99.90
12520;DHT22;6325;49.540;8.364;2022-12-18T11:42:01;-1.60;99.90
12520;DHT22;6325;49.540;8.364;2022-12-18T11:44:43;-1.80;99.90
12520;DHT22;6325;49.540;8.364;2022-12-18T11:47:19;-1.50;99.90
12520;DHT22;6325;49.540;8.364;2022-12-18T11:49:49;-1.70;99.90
12520;DHT22;6325;49.540;8.364;2022-12-18T11:52:19;-1.50;99.90
12520;DHT22;6325;49.540;8.364;2022-12-18T11:54:51;-1.70;99.90
12520;DHT22;6325;49.540;8.364;2022-12-18T11:57:27;-1.80;99.90
12520;DHT22;6325;49.540;8.364;2022-12-18T12:00:03;-2.00;99.90
12520;DHT22;6325;49.540;8.364;2022-12-18T12:05:40;-1.40;99.90
12520;DHT22;6325;49.540;8.364;2022-12-18T12:08:17;-1.50;99.90
12520;DHT22;6325;49.540;8.364;2022-12-18T12:10:54;-1.50;99.90
12520;DHT22;6325;49.540;8.364;2022-12-18T12:13:37;-1.40;99.90
12520;DHT22;6325;49.540;8.364;2022-12-18T12:16:15;-0.90;99.90
12520;DHT22;6325;49.540;8.364;2022-12-18T12:18:55;-1.60;99.90
12520;DHT22;6325;49.540;8.364;2022-12-18T12:21:33;-0.90;99.90
12520;DHT22;6325;49.540;8.364;2022-12-18T12:24:14;-1.00;99.90
12520;DHT22;6325;49.540;8.364;2022-12-18T12:26:52;-0.70;99.90
12520;DHT22;6325;49.540;8.364;2022-12-18T12:29:33;-1.00;99.90
12520;DHT22;6325;49.540;8.364;2022-12-18T12:32:16;-0.70;99.90
12520;DHT22;6325;49.540;8.364;2022-12-18T12:34:55;-0.80;99.90
12520;DHT22;6325;49.540;8.364;2022-12-18T12:37:32;-1.60;99.90
12520;DHT22;6325;49.540;8.364;2022-12-18T12:40:07;-0.80;99.90
12520;DHT22;6325;49.540;8.364;2022-12-18T12:42:39;-1.10;99.90
12520;DHT22;6325;49.540;8.364;2022-12-18T12:45:30;-0.70;99.90
12520;DHT22;6325;49.540;8.364;2022-12-18T12:48:02;-1.00;99.90
12520;DHT22;6325;49.540;8.364;2022-12-18T12:50:31;-0.50;99.90
12520;DHT22;6325;49.540;8.364;2022-12-18T12:53:01;-1.30;99.90
12520;DHT22;6325;49.540;8.364;2022-12-18T12:55:34;-0.80;99.90
12520;DHT22;6325;49.540;8.364;2022-12-18T12:58:06;-0.50;99.90
12520;DHT22;6325;49.540;8.364;2022-12-18T13:00:41;-0.80;99.90
12520;DHT22;6325;49.540;8.364;2022-12-18T13:03:15;-1.40;99.90
12520;DHT22;6325;49.540;8.364;2022-12-18T13:05:50;-0.90;99.90
12520;DHT22;6325;49.540;8.364;2022-12-18T13:08:26;-1.60;99.90
12520;DHT22;6325;49.540;8.364;2022-12-18T13:10:56;-1.00;99.90
12520;DHT22;6325;49.540;8.364;2022-12-18T13:13:51;-1.50;99.90
12520;DHT22;6325;49.540;8.364;2022-12-18T13:16:19;-1.20;99.90
12520;DHT22;6325;49.540;8.364;2022-12-18T13:18:51;-0.90;99.90
12520;DHT22;6325;49.540;8.364;2022-12-18T13:21:23;-1.40;99.90
12520;DHT22;6325;49.540;8.364;2022-12-18T13:23:51;-1.00;99.90
12520;DHT22;6325;49.540;8.364;2022-12-18T13:26:33;-1.60;99.90
12520;DHT22;6325;49.540;8.364;2022-12-18T13:29:02;-1.60;99.90
12520;DHT22;6325;49.540;8.364;2022-12-18T13:34:34;-1.60;99.90
12520;DHT22;6325;49.540;8.364;2022-12-18T13:37:40;-1.40;99.90
12520;DHT22;6325;49.540;8.364;2022-12-18T13:43:40;-0.90;99.90
12520;DHT22;6325;49.540;8.364;2022-12-18T13:46:20;-1.30;99.90
12520;DHT22;6325;49.540;8.364;2022-12-18T13:49:03;-1.10;99.90
12520;DHT22;6325;49.540;8.364;2022-12-18T13:51:33;-1.40;99.90
12520;DHT22;6325;49.540;8.364;2022-12-18T13:54:11;-1.50;99.90
12520;DHT22;6325;49.540;8.364;2022-12-18T13:56:44;-2.10;99.90
12520;DHT22;6325;49.540;8.364;2022-12-18T13:59:16;-1.40;99.90
12520;DHT22;6325;49.540;8.364;2022-12-18T14:01:46;-1.40;99.90
12520;DHT22;6325;49.540;8.364;2022-12-18T14:04:23;-1.90;99.90
12520;DHT22;6325;49.540;8.364;2022-12-18T14:06:53;-2.00;99.90
12520;DHT22;6325;49.540;8.364;2022-12-18T14:09:24;-1.40;99.90
12520;DHT22;6325;49.540;8.364;2022-12-18T14:11:52;-2.20;99.90
12520;DHT22;6325;49.540;8.364;2022-12-18T14:14:44;-1.80;99.90
12520;DHT22;6325;49.540;8.364;2022-12-18T14:17:13;-1.30;99.90
12520;DHT22;6325;49.540;8.364;2022-12-18T14:19:44;-2.10;99.90
12520;DHT22;6325;49.540;8.364;2022-12-18T14:22:17;-1.70;99.90
12520;DHT22;6325;49.540;8.364;2022-12-18T14:24:46;-1.90;99.90
12520;DHT22;6325;49.540;8.364;2022-12-18T14:27:21;-1.50;99.90
12520;DHT22;6325;49.540;8.364;2022-12-18T14:29:51;-1.90;99.90
12520;DHT22;6325;49.540;8.364;2022-12-18T14:32:19;-1.60;99.90
12520;DHT22;6325;49.540;8.364;2022-12-18T14:34:47;-2.50;99.90
12520;DHT22;6325;49.540;8.364;2022-12-18T14:37:17;-2.20;99.90
12520;DHT22;6325;49.540;8.364;2022-12-18T14:39:59;-1.80;99.90
12520;DHT22;6325;49.540;8.364;2022-12-18T14:42:26;-1.90;99.90
12520;DHT22;6325;49.540;8.364;2022-12-18T14:45:34;-2.70;99.90
12520;DHT22;6325;49.540;8.364;2022-12-18T14:48:06;-2.30;99.90
12520;DHT22;6325;49.540;8.364;2022-12-18T14:50:34;-2.10;99.90
12520;DHT22;6325;49.540;8.364;2022-12-18T14:53:02;-2.00;99.90
12520;DHT22;6325;49.540;8.364;2022-12-18T14:55:29;-1.90;99.90
12520;DHT22;6325;49.540;8.364;2022-12-18T14:57:56;-2.10;99.90
12520;DHT22;6325;49.540;8.364;2022-12-18T15:00:25;-2.10;99.90
12520;DHT22;6325;49.540;8.364;2022-12-18T15:02:55;-1.90;99.90
12520;DHT22;6325;49.540;8.364;2022-12-18T15:05:27;-2.60;99.90
12520;DHT22;6325;49.540;8.364;2022-12-18T15:07:55;-2.60;99.90
12520;DHT22;6325;49.540;8.364;2022-12-18T15:10:24;-2.70;99.90
12520;DHT22;6325;49.540;8.364;2022-12-18T15:13:07;-2.70;99.90
12520;DHT22;6325;49.540;8.364;2022-12-18T15:15:50;-2.10;99.90
12520;DHT22;6325;49.540;8.364;2022-12-18T15:18:21;-2.70;99.90
12520;DHT22;6325;49.540;8.364;2022-12-18T15:20:50;-2.30;99.90
12520;DHT22;6325;49.540;8.364;2022-12-18T15:23:20;-2.80;99.90
12520;DHT22;6325;49.540;8.364;2022-12-18T15:25:54;-2.10;99.90
12520;DHT22;6325;49.540;8.364;2022-12-18T15:28:25;-2.40;99.90
12520;DHT22;6325;49.540;8.364;2022-12-18T15:31:05;-2.70;99.90
12520;DHT22;6325;49.540;8.364;2022-12-18T15:33:35;-3.00;99.90
12520;DHT22;6325;49.540;8.364;2022-12-18T15:36:04;-2.90;99.90
12520;DHT22;6325;49.540;8.364;2022-12-18T15:38:32;-2.70;99.90
12520;DHT22;6325;49.540;8.364;2022-12-18T15:40:59;-2.90;99.90
12520;DHT22;6325;49.540;8.364;2022-12-18T15:43:26;-2.80;99.90
12520;DHT22;6325;49.540;8.364;2022-12-18T15:45:59;-2.70;99.90
12520;DHT22;6325;49.540;8.364;2022-12-18T15:48:26;-2.60;99.90
12520;DHT22;6325;49.540;8.364;2022-12-18T15:50:56;-3.00;99.90
12520;DHT22;6325;49.540;8.364;2022-12-18T15:53:25;-3.30;99.90
12520;DHT22;6325;49.540;8.364;2022-12-18T15:55:54;-2.70;99.90
12520;DHT22;6325;49.540;8.364;2022-12-18T15:58:39;-2.70;99.90
12520;DHT22;6325;49.540;8.364;2022-12-18T16:01:08;-2.80;99.90
12520;DHT22;6325;49.540;8.364;2022-12-18T16:03:36;-2.60;99.90
12520;DHT22;6325;49.540;8.364;2022-12-18T16:06:04;-2.70;99.90
12520;DHT22;6325;49.540;8.364;2022-12-18T16:08:32;-2.90;99.90
12520;DHT22;6325;49.540;8.364;2022-12-18T16:11:02;-2.90;99.90
12520;DHT22;6325;49.540;8.364;2022-12-18T16:13:29;-2.60;99.90
12520;DHT22;6325;49.540;8.364;2022-12-18T16:15:56;-3.00;99.90
12520;DHT22;6325;49.540;8.364;2022-12-18T16:18:23;-2.40;99.90
12520;DHT22;6325;49.540;8.364;2022-12-18T16:20:50;-2.80;99.90
12520;DHT22;6325;49.540;8.364;2022-12-18T16:23:18;-3.20;99.90
12520;DHT22;6325;49.540;8.364;2022-12-18T16:25:45;-2.40;99.90
12520;DHT22;6325;49.540;8.364;2022-12-18T16:28:13;-3.10;99.90